Time;durP1;ratioP1;P1;durP2;ratioP2;P2;SDS_P1;SDS_P2;PMS_P1;PMS_P2;Temp;Humidity;BMP_temperature;BMP_pressure;BME280_temperature;BME280_humidity;BME280_pressure;Samples;Min_cycle;Max_cycle;Signal;HPM_P1;HPM_P2
2022/05/27 00:01:30;;;;;;;2.17;1.97;;;;;;;13.31;100.00;96932.84;5032629;27;102327;-61
2022/05/27 00:03:59;;;;;;;4.27;2.03;;;;;;;13.33;100.00;96926.19;5030750;28;104612;-61
2022/05/27 00:06:29;;;;;;;2.30;2.03;;;;;;;13.38;100.00;96920.06;5032596;27;101901;-61
2022/05/27 00:08:56;;;;;;;3.00;1.77;;;;;;;13.30;100.00;96913.31;5014724;28;105596;-61
2022/05/27 00:11:25;;;;;;;2.60;2.10;;;;;;;13.38;100.00;96909.38;5034115;28;105461;-61
2022/05/27 00:13:52;;;;;;;2.10;2.00;;;;;;;13.47;100.00;96916.66;5031321;28;103596;-61
2022/05/27 00:16:19;;;;;;;1.90;1.80;;;;;;;13.26;100.00;96912.25;5030388;28;105705;-61
2022/05/27 00:18:46;;;;;;;2.20;1.70;;;;;;;12.88;100.00;96919.56;5031312;28;102087;-61
2022/05/27 00:21:14;;;;;;;3.17;1.83;;;;;;;12.89;100.00;96915.84;5031158;28;105495;-61
2022/05/27 00:23:43;;;;;;;1.90;1.80;;;;;;;12.93;100.00;96911.63;5031849;28;102554;-61
2022/05/27 00:26:10;;;;;;;2.07;1.60;;;;;;;12.96;100.00;96911.13;5031134;28;102100;-61
2022/05/27 00:28:37;;;;;;;2.23;1.90;;;;;;;12.97;100.00;96907.44;5031183;28;103981;-61
2022/05/27 00:31:05;;;;;;;2.20;1.90;;;;;;;12.94;100.00;96905.22;5030317;28;104433;-61
2022/05/27 00:33:32;;;;;;;3.47;2.10;;;;;;;13.06;100.00;96905.88;5034468;28;101846;-61
2022/05/27 00:35:59;;;;;;;3.40;2.00;;;;;;;12.99;100.00;96902.63;5032096;28;102636;-61
2022/05/27 00:38:25;;;;;;;3.03;1.97;;;;;;;12.72;100.00;96910.63;5030728;28;102002;-61
2022/05/27 00:40:54;;;;;;;2.47;1.77;;;;;;;12.63;100.00;96898.75;5030853;28;105218;-61
2022/05/27 00:43:22;;;;;;;2.10;1.90;;;;;;;12.75;100.00;96902.09;5030145;28;105520;-61
2022/05/27 00:45:57;;;;;;;3.07;2.00;;;;;;;12.88;100.00;96900.88;5030711;28;102183;-61
2022/05/27 00:48:25;;;;;;;2.00;1.90;;;;;;;12.91;100.00;96897.72;5030832;28;103599;-61
2022/05/27 00:50:53;;;;;;;2.00;1.90;;;;;;;12.84;100.00;96903.25;5030271;28;103848;-61
2022/05/27 00:53:30;;;;;;;1.80;1.70;;;;;;;12.91;100.00;96889.72;5031772;28;101855;-61
2022/05/27 00:56:01;;;;;;;1.77;1.67;;;;;;;12.97;100.00;96897.53;5033674;28;104828;-61
2022/05/27 00:58:31;;;;;;;2.33;1.93;;;;;;;13.04;100.00;96900.00;5030806;28;101781;-61
2022/05/27 01:00:58;;;;;;;2.40;1.80;;;;;;;12.99;100.00;96895.44;5030208;28;105078;-61
2022/05/27 01:03:28;;;;;;;1.80;1.70;;;;;;;12.96;100.00;96895.13;5063708;27;103861;-61
2022/05/27 01:05:55;;;;;;;3.57;1.70;;;;;;;12.91;100.00;96889.72;5030430;28;101975;-61
2022/05/27 01:08:25;;;;;;;1.50;1.50;;;;;;;12.91;100.00;96892.41;5030344;28;103673;-61
2022/05/27 01:11:03;;;;;;;2.00;1.53;;;;;;;12.89;100.00;96889.16;5030393;27;103594;-61
2022/05/27 01:13:41;;;;;;;1.90;1.80;;;;;;;12.75;100.00;96888.75;5031814;28;101817;-61
2022/05/27 01:16:17;;;;;;;1.97;1.87;;;;;;;12.50;100.00;96882.34;5030100;28;105441;-61
2022/05/27 01:22:01;;;;;;;2.23;1.70;;;;;;;12.53;100.00;96890.66;5030337;28;105391;-61
2022/05/27 01:24:50;;;;;;;2.23;1.70;;;;;;;12.47;100.00;96888.16;5031040;28;102781;-61
2022/05/27 01:27:34;;;;;;;1.63;1.53;;;;;;;12.32;100.00;96883.47;5031629;28;101687;-61
2022/05/27 01:30:20;;;;;;;1.70;1.60;;;;;;;12.12;100.00;96887.75;5030191;28;105118;-61
2022/05/27 01:33:00;;;;;;;1.70;1.60;;;;;;;12.05;100.00;96884.47;5029244;28;105404;-61
2022/05/27 01:35:38;;;;;;;1.70;1.60;;;;;;;11.99;100.00;96888.13;5030107;28;101909;-61
2022/05/27 01:38:13;;;;;;;1.80;1.70;;;;;;;11.99;100.00;96886.25;5030147;28;105087;-61
2022/05/27 01:40:50;;;;;;;1.50;1.47;;;;;;;11.88;100.00;96879.16;5029357;28;102825;-61
2022/05/27 01:43:21;;;;;;;1.70;1.60;;;;;;;11.91;100.00;96889.34;5035025;28;101713;-61
2022/05/27 01:45:55;;;;;;;1.67;1.57;;;;;;;11.98;100.00;96881.16;5030651;27;102679;-61
2022/05/27 01:48:28;;;;;;;2.37;1.77;;;;;;;11.83;100.00;96886.31;5029951;28;101950;-61
2022/05/27 01:51:01;;;;;;;1.80;1.70;;;;;;;11.70;100.00;96881.31;5031615;27;102338;-61
2022/05/27 01:53:33;;;;;;;2.00;1.80;;;;;;;11.77;100.00;96881.97;5030637;28;102658;-61
2022/05/27 01:56:06;;;;;;;3.87;2.30;;;;;;;11.90;100.00;96879.75;5031182;28;101693;-61
2022/05/27 01:58:40;;;;;;;1.90;1.80;;;;;;;11.92;100.00;96887.47;5031307;27;102275;-61
2022/05/27 02:01:12;;;;;;;2.03;1.50;;;;;;;11.91;100.00;96886.69;5028695;28;105336;-61
2022/05/27 02:03:44;;;;;;;2.37;2.17;;;;;;;11.99;100.00;96896.13;5033246;28;102221;-61
2022/05/27 02:06:14;;;;;;;3.27;2.20;;;;;;;12.04;100.00;96886.31;5028476;28;105189;-61
2022/05/27 02:08:47;;;;;;;2.80;2.00;;;;;;;11.95;100.00;96879.78;5030814;28;101871;-61
2022/05/27 02:11:17;;;;;;;4.53;1.77;;;;;;;11.80;100.00;96889.44;5029466;28;103576;-60
2022/05/27 02:13:50;;;;;;;3.70;2.00;;;;;;;11.74;100.00;96890.44;5028459;28;103683;-61
2022/05/27 02:16:24;;;;;;;1.90;1.80;;;;;;;11.89;100.00;96883.44;5030951;28;101690;-61
2022/05/27 02:18:55;;;;;;;3.87;2.10;;;;;;;11.97;100.00;96885.69;5029509;28;105572;-61
2022/05/27 02:21:27;;;;;;;1.87;1.77;;;;;;;12.01;100.00;96888.66;5028756;28;104271;-61
2022/05/27 02:23:59;;;;;;;1.73;1.63;;;;;;;12.04;100.00;96874.88;5029426;28;102058;-61
2022/05/27 02:26:31;;;;;;;1.93;1.83;;;;;;;12.03;100.00;96876.72;5032193;28;105396;-61
2022/05/27 02:29:02;;;;;;;2.23;2.13;;;;;;;12.01;100.00;96870.84;5029181;28;101837;-61
2022/05/27 02:31:34;;;;;;;1.90;1.80;;;;;;;12.06;100.00;96867.41;5029193;28;106142;-61
2022/05/27 02:36:56;;;;;;;1.70;1.60;;;;;;;11.99;100.00;96869.47;5028760;28;101859;-61
2022/05/27 02:39:24;;;;;;;2.00;1.80;;;;;;;12.08;100.00;96871.44;5029225;28;105103;-61
2022/05/27 02:42:00;;;;;;;2.10;2.00;;;;;;;12.14;100.00;96874.97;5029680;27;102822;-61
2022/05/27 02:44:35;;;;;;;2.20;2.00;;;;;;;11.92;100.00;96876.81;5028991;28;101833;-61
2022/05/27 02:47:09;;;;;;;2.33;1.97;;;;;;;11.95;100.00;96884.31;5030364;27;102607;-61
2022/05/27 02:49:43;;;;;;;2.40;2.20;;;;;;;11.85;100.00;96873.53;5031821;28;105689;-61
2022/05/27 02:52:19;;;;;;;2.90;1.80;;;;;;;11.94;100.00;96872.06;5028745;28;105116;-61
2022/05/27 02:54:55;;;;;;;3.53;1.90;;;;;;;11.90;100.00;96874.41;5028197;28;103875;-61
2022/05/27 02:57:28;;;;;;;2.10;2.00;;;;;;;11.93;100.00;96883.78;5028850;28;101803;-61
2022/05/27 02:59:56;;;;;;;2.00;1.70;;;;;;;11.93;100.00;96884.56;5028650;28;105260;-61
2022/05/27 03:02:25;;;;;;;2.37;2.10;;;;;;;11.95;100.00;96887.78;5028251;28;104029;-61
2022/05/27 03:04:55;;;;;;;2.23;1.93;;;;;;;11.81;100.00;96891.06;5028380;28;101896;-61
2022/05/27 03:07:33;;;;;;;2.17;2.07;;;;;;;11.84;100.00;96879.91;5028446;28;105258;-61
2022/05/27 03:10:17;;;;;;;2.40;2.30;;;;;;;11.88;100.00;96883.72;5028014;28;105713;-61
2022/05/27 03:12:54;;;;;;;3.13;2.03;;;;;;;11.86;100.00;96883.94;5033543;28;102175;-61
2022/05/27 03:15:31;;;;;;;2.27;1.70;;;;;;;11.81;100.00;96891.88;5028051;28;105727;-61
2022/05/27 03:18:12;;;;;;;2.90;1.90;;;;;;;11.88;100.00;96897.03;5028593;28;102133;-61
2022/05/27 03:20:49;;;;;;;3.13;1.90;;;;;;;11.87;100.00;96890.06;5028793;28;104832;-61
2022/05/27 03:23:36;;;;;;;2.33;2.07;;;;;;;11.86;100.00;96893.78;5028129;28;104111;-61
2022/05/27 03:26:11;;;;;;;2.27;2.07;;;;;;;11.87;100.00;96900.72;5028334;28;102182;-61
2022/05/27 03:28:46;;;;;;;2.70;2.50;;;;;;;11.86;100.00;96901.78;5028400;28;103880;-61
2022/05/27 03:31:18;;;;;;;2.53;2.20;;;;;;;11.86;100.00;96899.13;5027823;28;105452;-61
2022/05/27 03:33:54;;;;;;;2.40;2.20;;;;;;;11.91;100.00;96901.84;5030127;27;102235;-61
2022/05/27 03:36:33;;;;;;;2.63;2.00;;;;;;;11.89;100.00;96895.97;5034905;28;104853;-61
2022/05/27 03:39:12;;;;;;;3.50;2.40;;;;;;;11.86;100.00;96902.59;5031870;28;101844;-61
2022/05/27 03:41:43;;;;;;;2.97;2.20;;;;;;;11.91;100.00;96900.00;5031737;28;103688;-61
2022/05/27 03:44:16;;;;;;;2.70;2.23;;;;;;;11.96;100.00;96905.41;5032397;28;102900;-61
2022/05/27 03:46:44;;;;;;;2.47;2.27;;;;;;;12.00;100.00;96905.72;5031800;28;102050;-61
2022/05/27 03:49:13;;;;;;;3.03;2.23;;;;;;;12.07;100.00;96896.50;5031742;28;104057;-61
2022/05/27 03:51:51;;;;;;;5.47;2.40;;;;;;;12.10;100.00;96900.53;5031156;28;103882;-61
2022/05/27 03:54:18;;;;;;;2.50;2.30;;;;;;;12.05;100.00;96895.13;5031594;28;102452;-61
2022/05/27 03:56:45;;;;;;;2.47;2.27;;;;;;;12.09;100.00;96901.56;5031551;28;103563;-61
2022/05/27 03:59:14;;;;;;;3.57;2.70;;;;;;;12.10;100.00;96900.53;5034385;28;101970;-61
2022/05/27 04:01:43;;;;;;;3.00;2.50;;;;;;;12.14;100.00;96907.78;5031290;28;104718;-61
2022/05/27 04:04:13;;;;;;;2.87;2.50;;;;;;;12.22;100.00;96907.34;5032283;28;102852;-61
2022/05/27 04:06:40;;;;;;;4.10;2.27;;;;;;;12.25;100.00;96906.03;5032778;28;101958;-61
2022/05/27 04:09:07;;;;;;;4.43;2.17;;;;;;;12.23;100.00;96905.47;5032573;27;101694;-61
2022/05/27 04:11:35;;;;;;;2.83;2.50;;;;;;;12.30;100.00;96916.75;5032066;27;102610;-61
2022/05/27 04:14:02;;;;;;;4.50;2.50;;;;;;;12.32;100.00;96904.00;5032678;28;102148;-61
2022/05/27 04:16:30;;;;;;;2.70;2.40;;;;;;;12.33;100.00;96901.06;5033047;28;102379;-61
2022/05/27 04:18:57;;;;;;;2.17;1.97;;;;;;;12.34;100.00;96901.88;5035364;28;103325;-61
2022/05/27 04:21:25;;;;;;;2.13;2.00;;;;;;;12.32;100.00;96902.13;5032494;28;102370;-61
2022/05/27 04:23:52;;;;;;;2.43;2.07;;;;;;;12.41;100.00;96907.81;5030430;28;105383;-61
2022/05/27 04:26:20;;;;;;;2.60;2.00;;;;;;;12.49;100.00;96910.88;5031011;28;102000;-61
2022/05/27 04:28:47;;;;;;;2.60;2.10;;;;;;;12.45;100.00;96906.28;5031023;28;106125;-61
2022/05/27 04:31:15;;;;;;;2.83;1.70;;;;;;;12.52;100.00;96910.38;5030046;28;104013;-61
2022/05/27 04:33:42;;;;;;;2.00;1.80;;;;;;;12.58;100.00;96904.03;5031359;28;101902;-61
2022/05/27 04:36:11;;;;;;;1.90;1.80;;;;;;;12.54;100.00;96905.59;5031379;28;105223;-61
2022/05/27 04:38:40;;;;;;;4.33;1.93;;;;;;;12.61;100.00;96902.75;5030682;28;105736;-61
2022/05/27 04:41:07;;;;;;;4.47;2.20;;;;;;;12.61;100.00;96900.06;5034628;28;101943;-61
2022/05/27 04:43:34;;;;;;;3.50;1.90;;;;;;;12.77;100.00;96912.53;5030504;28;105288;-61
2022/05/27 04:46:01;;;;;;;2.40;2.20;;;;;;;12.93;100.00;96919.63;5030138;28;101946;-61
2022/05/27 04:48:28;;;;;;;2.70;2.00;;;;;;;12.93;100.00;96906.28;5031310;28;103593;-61
2022/05/27 04:50:55;;;;;;;3.27;1.87;;;;;;;13.09;100.00;96900.06;5030501;28;102728;-61
2022/05/27 04:53:22;;;;;;;2.93;1.90;;;;;;;13.15;100.00;96899.03;5030963;28;101922;-61
2022/05/27 04:55:50;;;;;;;2.63;2.20;;;;;;;13.30;100.00;96897.28;5032552;28;102324;-61
2022/05/27 04:58:39;;;;;;;2.30;2.10;;;;;;;13.44;100.00;96892.31;5029912;28;102708;-61
2022/05/27 05:01:06;;;;;;;3.00;2.23;;;;;;;13.37;100.00;96897.09;5030938;28;101774;-61
2022/05/27 05:03:32;;;;;;;2.20;2.00;;;;;;;13.52;100.00;96889.19;5030516;28;104993;-61
2022/05/27 05:06:00;;;;;;;5.60;2.37;;;;;;;13.67;100.00;96889.28;5030630;28;102355;-60
2022/05/27 05:08:33;;;;;;;4.37;2.20;;;;;;;13.66;100.00;96890.34;5030795;28;105477;-61
2022/05/27 05:11:03;;;;;;;3.50;2.13;;;;;;;13.82;100.00;96894.72;5029566;28;105432;-60
2022/05/27 05:13:30;;;;;;;6.07;2.60;;;;;;;13.87;100.00;96900.94;5030028;28;102067;-60
2022/05/27 05:15:58;;;;;;;3.00;2.43;;;;;;;13.67;100.00;96895.44;5030176;28;106188;-60
2022/05/27 05:18:25;;;;;;;2.43;2.00;;;;;;;13.74;100.00;96900.56;5029467;28;106628;-61
2022/05/27 05:20:53;;;;;;;5.27;2.17;;;;;;;13.79;100.00;96900.63;5029715;28;101965;-60
2022/05/27 05:23:20;;;;;;;2.03;1.83;;;;;;;13.93;100.00;96896.41;5031798;28;102586;-60
2022/05/27 05:25:47;;;;;;;2.17;2.00;;;;;;;13.96;100.00;96899.38;5034795;27;102879;-60
2022/05/27 05:28:36;;;;;;;5.47;2.13;;;;;;;14.08;100.00;96897.31;5032080;28;102409;-60
2022/05/27 05:31:03;;;;;;;2.33;1.70;;;;;;;14.16;100.00;96896.00;5029992;28;106552;-60
2022/05/27 05:33:30;;;;;;;2.83;1.73;;;;;;;14.13;100.00;96889.31;5013663;28;102047;-61
2022/05/27 05:35:57;;;;;;;2.70;1.70;;;;;;;14.32;100.00;96885.13;5030295;28;103729;-61
2022/05/27 05:38:26;;;;;;;1.93;1.80;;;;;;;14.29;100.00;96891.00;5031236;28;103140;-61
2022/05/27 05:40:53;;;;;;;1.93;1.83;;;;;;;14.50;100.00;96886.56;5029684;28;101920;-61
2022/05/27 05:43:20;;;;;;;1.70;1.60;;;;;;;14.65;100.00;96878.53;5031386;28;102375;-61
2022/05/27 05:45:49;;;;;;;3.03;2.03;;;;;;;14.50;100.00;96883.88;5030360;28;102631;-61
2022/05/27 05:48:16;;;;;;;2.83;1.70;;;;;;;14.76;100.00;96881.00;5034722;27;101881;-61
2022/05/27 05:50:42;;;;;;;4.67;2.20;;;;;;;14.70;100.00;96878.56;5030850;27;103141;-61
2022/05/27 05:53:09;;;;;;;4.70;1.97;;;;;;;14.78;100.00;96867.34;5031256;27;102067;-61
2022/05/27 05:55:37;;;;;;;3.10;1.93;;;;;;;14.77;100.00;96876.47;5030795;28;102809;-61
2022/05/27 05:58:29;;;;;;;2.63;1.90;;;;;;;14.90;100.00;96870.59;5030480;28;103000;-61
2022/05/27 06:00:58;;;;;;;3.07;2.13;;;;;;;14.98;100.00;96872.75;5030794;27;102033;-61
2022/05/27 06:03:25;;;;;;;3.73;1.73;;;;;;;15.15;100.00;96870.63;5029998;28;105175;-61
2022/05/27 06:05:53;;;;;;;5.97;1.90;;;;;;;15.42;100.00;96865.84;5030418;27;102621;-61
2022/05/27 06:08:20;;;;;;;2.80;1.83;;;;;;;15.42;100.00;96863.94;5034655;27;101821;-61
2022/05/27 06:10:48;;;;;;;3.13;1.70;;;;;;;15.47;100.00;96865.84;5029046;28;105459;-61
2022/05/27 06:13:15;;;;;;;1.50;1.40;;;;;;;15.38;100.00;96865.53;5029003;28;101946;-61
2022/05/27 06:16:08;;;;;;;3.00;1.47;;;;;;;15.42;100.00;96868.53;5029798;28;104976;-61
2022/05/27 06:18:35;;;;;;;3.17;1.73;;;;;;;15.43;100.00;96870.13;5029107;28;103766;-61
2022/05/27 06:21:02;;;;;;;2.03;1.50;;;;;;;15.46;100.00;96880.28;5029446;28;101984;-61
2022/05/27 06:23:30;;;;;;;2.33;1.60;;;;;;;15.51;100.00;96878.41;5029698;28;103525;-61
2022/05/27 06:25:59;;;;;;;2.40;1.60;;;;;;;15.61;100.00;96874.91;5030269;28;102669;-61
2022/05/27 06:34:25;;;;;;;2.53;1.40;;;;;;;15.66;100.00;96861.50;5024056;28;101949;-61
2022/05/27 06:36:53;;;;;;;2.53;1.70;;;;;;;15.68;100.00;96865.53;5029412;28;105679;-61
2022/05/27 06:39:21;;;;;;;3.63;1.60;;;;;;;15.89;100.00;96866.28;5028302;28;105741;-61
2022/05/27 06:41:48;;;;;;;3.00;1.50;;;;;;;15.88;100.00;96857.47;5028868;28;102116;-62
2022/05/27 06:48:44;;;;;;;1.63;1.50;;;;;;;16.05;100.00;96851.75;5027073;28;102145;-61
2022/05/27 06:51:12;;;;;;;3.60;1.90;;;;;;;15.96;100.00;96848.84;5030326;28;102098;-61
2022/05/27 06:53:46;;;;;;;3.57;1.67;;;;;;;16.38;100.00;96851.09;5030235;28;102366;-61
2022/05/27 06:56:15;;;;;;;3.87;1.60;;;;;;;16.47;100.00;96844.91;5012616;28;104451;-61
2022/05/27 06:58:43;;;;;;;4.80;1.50;;;;;;;16.67;100.00;96849.38;5009826;28;102626;-61
2022/05/27 07:01:10;;;;;;;2.47;1.57;;;;;;;16.94;100.00;96839.00;5007099;28;103866;-61
2022/05/27 07:03:38;;;;;;;1.97;1.47;;;;;;;17.10;100.00;96843.16;5008643;28;102060;-61
2022/05/27 07:06:05;;;;;;;1.83;1.17;;;;;;;16.92;100.00;96838.47;5008504;28;105628;-61
2022/05/27 07:08:35;;;;;;;1.40;1.30;;;;;;;17.02;100.00;96830.34;5007133;28;105568;-61
2022/05/27 07:11:03;;;;;;;2.57;1.30;;;;;;;17.12;100.00;96836.44;5009681;28;101897;-61
2022/05/27 07:13:31;;;;;;;1.40;1.20;;;;;;;17.29;100.00;96818.03;5042173;27;103623;-61
2022/05/27 07:15:58;;;;;;;3.57;1.37;;;;;;;17.44;100.00;96822.50;5024926;28;105926;-61
2022/05/27 07:18:25;;;;;;;2.60;1.40;;;;;;;17.63;100.00;96834.16;5033500;27;102093;-61
2022/05/27 07:21:00;;;;;;;1.60;1.17;;;;;;;17.50;100.00;96816.00;5029307;27;102648;-61
2022/05/27 07:23:27;;;;;;;4.33;1.10;;;;;;;17.59;100.00;96820.47;5030151;28;101874;-61
2022/05/27 07:25:55;;;;;;;1.87;1.10;;;;;;;17.76;100.00;96817.34;5029683;28;102836;-61
2022/05/27 07:28:23;;;;;;;3.63;1.33;;;;;;;18.01;100.00;96806.28;5028098;28;105630;-61
2022/05/27 07:30:50;;;;;;;1.07;0.90;;;;;;;17.92;100.00;96798.06;5030289;28;101841;-61
2022/05/27 07:33:17;;;;;;;2.03;0.90;;;;;;;17.74;100.00;96808.75;5029925;28;102395;-61
2022/05/27 07:36:19;;;;;;;1.20;1.00;;;;;;;17.79;100.00;96800.63;5027294;28;105478;-61
2022/05/27 07:38:47;;;;;;;1.50;0.90;;;;;;;17.78;100.00;96796.34;5028900;28;101827;-61
2022/05/27 07:41:15;;;;;;;1.03;0.90;;;;;;;18.27;100.00;96800.34;5031156;28;104094;-61
2022/05/27 07:43:47;;;;;;;1.13;1.00;;;;;;;18.51;100.00;96794.91;5028275;28;101898;-61
2022/05/27 07:46:16;;;;;;;1.50;1.20;;;;;;;18.87;100.00;96786.06;5028169;28;105147;-61
2022/05/27 07:48:44;;;;;;;2.70;0.90;;;;;;;18.91;100.00;96788.97;5027200;28;104100;-61
2022/05/27 07:51:11;;;;;;;1.53;1.00;;;;;;;19.25;100.00;96784.94;5028306;28;102076;-61
2022/05/27 07:53:41;;;;;;;2.93;1.10;;;;;;;19.22;100.00;96782.81;5027831;28;106247;-61
2022/05/27 07:56:10;;;;;;;1.80;1.00;;;;;;;19.32;100.00;96774.56;5027415;28;105755;-61
2022/05/27 07:59:07;;;;;;;1.23;1.00;;;;;;;19.47;100.00;96776.19;5028259;28;102031;-61
2022/05/27 08:01:36;;;;;;;1.00;0.90;;;;;;;19.44;100.00;96776.75;5027750;28;104496;-61
2022/05/27 08:07:51;;;;;;;2.90;1.10;;;;;;;19.64;100.00;96766.44;5006642;28;102459;-61
2022/05/27 08:10:20;;;;;;;1.67;0.80;;;;;;;19.92;100.00;96767.22;5025216;28;103132;-61
2022/05/27 08:12:47;;;;;;;1.20;0.87;;;;;;;20.16;100.00;96770.56;5028092;28;102018;-61
2022/05/27 08:15:26;;;;;;;2.43;1.10;;;;;;;20.22;100.00;96775.53;5027842;28;103756;-61
2022/05/27 08:17:54;;;;;;;2.50;1.10;;;;;;;20.01;100.00;96778.94;5027549;28;105405;-61
2022/05/27 08:20:23;;;;;;;0.70;0.70;;;;;;;19.89;100.00;96762.44;5030455;27;101984;-61
2022/05/27 08:22:53;;;;;;;2.20;1.13;;;;;;;20.20;100.00;96760.75;5031679;28;103689;-61
2022/05/27 08:25:47;;;;;;;2.20;0.70;;;;;;;20.60;100.00;96757.19;5034137;28;103882;-61
2022/05/27 08:28:13;;;;;;;2.10;0.90;;;;;;;20.89;100.00;96761.13;5031408;28;103965;-61
2022/05/27 08:30:42;;;;;;;1.40;0.80;;;;;;;20.79;100.00;96760.50;5030378;28;105732;-61
2022/05/27 08:33:10;;;;;;;4.40;1.10;;;;;;;20.52;100.00;96757.88;5031508;28;101937;-61
2022/05/27 08:38:40;;;;;;;0.80;0.77;;;;;;;20.57;100.00;96749.66;5029533;28;104240;-61
2022/05/27 08:41:18;;;;;;;0.97;0.60;;;;;;;20.96;100.00;96752.56;5030728;28;102059;-61
2022/05/27 08:44:19;;;;;;;1.33;0.97;;;;;;;20.83;100.00;96748.81;5031091;28;105325;-61
2022/05/27 08:46:57;;;;;;;2.77;1.00;;;;;;;20.47;100.00;96741.78;5030085;28;105151;-61
2022/05/27 08:49:31;;;;;;;3.37;0.97;;;;;;;21.15;100.00;96731.56;5034648;28;101724;-61
2022/05/27 08:52:02;;;;;;;2.60;1.00;;;;;;;20.91;100.00;96736.47;5030426;28;105851;-61
2022/05/27 08:54:34;;;;;;;1.87;0.90;;;;;;;21.40;100.00;96742.53;5029882;28;102340;-61
2022/05/27 09:00:17;;;;;;;1.77;0.93;;;;;;;20.88;100.00;96742.47;5028121;28;105815;-61
2022/05/27 09:02:57;;;;;;;2.00;0.80;;;;;;;21.57;100.00;96734.50;5031956;27;101981;-61
2022/05/27 09:05:30;;;;;;;1.70;0.70;;;;;;;21.18;100.00;96737.13;5032141;28;102369;-61
2022/05/27 09:08:02;;;;;;;1.63;0.80;;;;;;;21.85;100.00;96729.72;5031543;28;103302;-61
2022/05/27 09:10:36;;;;;;;1.43;0.90;;;;;;;21.84;100.00;96723.50;5032152;27;101714;-63
2022/05/27 09:13:11;;;;;;;1.13;0.73;;;;;;;22.07;99.68;96727.69;5035243;28;102506;-62
2022/05/27 09:16:13;;;;;;;0.80;0.80;;;;;;;21.31;100.00;96730.84;5030299;28;102244;-62
2022/05/27 09:18:51;;;;;;;1.43;0.80;;;;;;;21.75;100.00;96719.16;5012452;28;103648;-61
2022/05/27 09:21:25;;;;;;;1.80;0.80;;;;;;;22.07;100.00;96716.09;5009499;28;106217;-62
2022/05/27 09:24:33;;;;;;;2.73;0.93;;;;;;;21.59;100.00;96713.31;5032036;28;101683;-62
2022/05/27 09:27:09;;;;;;;1.90;0.90;;;;;;;21.48;100.00;96719.31;5018825;28;102612;-62
2022/05/27 09:29:53;;;;;;;2.07;0.90;;;;;;;21.85;98.97;96708.06;5031135;28;102588;-62
2022/05/27 09:32:29;;;;;;;1.33;0.80;;;;;;;21.61;100.00;96696.78;5031506;28;101760;-62
2022/05/27 09:35:39;;;;;;;1.00;0.90;;;;;;;21.50;100.00;96700.84;5012820;28;105395;-62
2022/05/27 09:38:08;;;;;;;1.87;0.93;;;;;;;21.64;100.00;96702.34;5032890;28;105717;-62
2022/05/27 09:40:39;;;;;;;1.13;1.00;;;;;;;22.15;100.00;96701.75;5030394;28;103726;-62
2022/05/27 09:43:14;;;;;;;0.97;0.90;;;;;;;22.53;98.91;96691.94;5031002;28;102568;-62
2022/05/27 09:45:51;;;;;;;1.97;0.80;;;;;;;22.68;99.02;96691.47;5031614;28;101789;-62
2022/05/27 09:48:18;;;;;;;1.07;0.80;;;;;;;22.13;99.89;96687.72;5030248;28;103511;-62
2022/05/27 09:50:48;;;;;;;2.47;1.00;;;;;;;21.96;100.00;96682.28;5031042;27;102767;-62
2022/05/27 09:53:21;;;;;;;1.50;1.00;;;;;;;21.91;99.86;96693.25;5030935;27;101863;-62
2022/05/27 09:56:35;;;;;;;1.37;0.90;;;;;;;22.17;99.61;96688.69;5011212;28;102925;-62
2022/05/27 09:59:21;;;;;;;1.63;1.00;;;;;;;22.39;94.86;96675.00;5010934;28;103043;-62
2022/05/27 10:01:49;;;;;;;2.13;0.80;;;;;;;22.85;93.08;96683.31;5021647;28;101904;-62
2022/05/27 10:08:03;;;;;;;1.80;0.80;;;;;;;22.25;94.68;96680.59;5028146;28;101972;-62
2022/05/27 10:10:34;;;;;;;0.80;0.80;;;;;;;22.55;99.31;96678.88;5029844;28;103948;-62
2022/05/27 10:13:16;;;;;;;0.70;0.70;;;;;;;22.19;93.55;96679.09;5028891;28;105755;-62
2022/05/27 10:15:47;;;;;;;1.13;0.80;;;;;;;22.32;93.61;96674.66;5043489;27;101821;-62
2022/05/27 10:18:17;;;;;;;1.13;0.70;;;;;;;23.22;90.05;96666.38;5028917;28;104034;-62
2022/05/27 10:20:48;;;;;;;1.00;0.90;;;;;;;23.29;85.27;96661.22;5029090;28;105171;-62
2022/05/27 10:23:25;;;;;;;1.03;0.80;;;;;;;23.04;82.97;96670.22;5029564;28;101759;-62
2022/05/27 10:25:54;;;;;;;2.73;0.90;;;;;;;23.52;83.73;96659.84;5032356;28;105226;-62
2022/05/27 10:28:40;;;;;;;1.53;0.70;;;;;;;23.40;87.06;96655.13;5029572;28;101862;-62
2022/05/27 10:31:17;;;;;;;2.03;0.80;;;;;;;23.26;87.37;96662.66;5043121;27;106451;-62
2022/05/27 10:33:57;;;;;;;1.17;0.73;;;;;;;23.66;85.65;96650.38;5009098;28;105345;-62
2022/05/27 10:36:50;;;;;;;0.83;0.80;;;;;;;23.96;84.64;96662.88;5017978;28;101925;-62
2022/05/27 10:39:29;;;;;;;0.77;0.77;;;;;;;23.14;85.79;96648.16;5030686;28;102316;-62
2022/05/27 10:42:16;;;;;;;0.80;0.60;;;;;;;23.41;87.24;96647.78;5028318;27;105245;-62
2022/05/27 10:45:12;;;;;;;1.83;0.77;;;;;;;23.40;84.75;96654.31;5028976;28;101902;-62
2022/05/27 10:48:02;;;;;;;6.00;1.00;;;;;;;23.28;82.22;96646.06;5031847;28;104842;-62
2022/05/27 10:50:34;;;;;;;1.13;0.63;;;;;;;23.63;79.70;96631.22;5029230;28;101818;-62
2022/05/27 10:53:17;;;;;;;1.30;0.80;;;;;;;23.93;74.83;96632.84;5029307;28;105651;-62
2022/05/27 10:56:03;;;;;;;1.70;0.70;;;;;;;24.13;73.57;96634.81;5028155;28;104167;-62
2022/05/27 11:02:08;;;;;;;0.97;0.63;;;;;;;22.98;80.93;96628.06;5008440;28;104099;-62
2022/05/27 11:05:25;;;;;;;2.07;0.97;;;;;;;23.06;82.36;96622.63;5015521;28;105060;-62
2022/05/27 11:08:12;;;;;;;1.90;0.70;;;;;;;24.06;75.92;96616.31;4970398;28;102185;-62
2022/05/27 11:10:47;;;;;;;0.83;0.50;;;;;;;23.75;72.63;96625.91;4972214;28;102521;-62
2022/05/27 11:16:46;;;;;;;1.03;0.60;;;;;;;23.86;73.54;96613.53;4964570;28;104450;-62
2022/05/27 11:19:31;;;;;;;2.47;0.70;;;;;;;24.24;65.08;96611.56;4972197;28;102868;-62
2022/05/27 11:22:13;;;;;;;1.90;0.70;;;;;;;24.63;61.97;96590.09;4987996;28;101995;-62
2022/05/27 11:25:21;;;;;;;0.57;0.40;;;;;;;23.98;61.78;96592.69;4978560;28;102440;-62
2022/05/27 11:28:26;;;;;;;0.50;0.50;;;;;;;24.36;61.35;96585.19;4967842;28;102631;-62
2022/05/27 11:31:05;;;;;;;0.90;0.70;;;;;;;24.80;63.42;96589.94;4985557;28;103294;-62
2022/05/27 11:33:40;;;;;;;1.17;0.50;;;;;;;25.12;56.37;96585.59;4968272;28;102371;-62
2022/05/27 11:36:20;;;;;;;0.93;0.60;;;;;;;24.43;63.63;96587.38;4935576;28;103726;-62
2022/05/27 11:38:59;;;;;;;3.03;0.70;;;;;;;24.54;62.48;96580.41;4989073;28;102204;-62
2022/05/27 11:41:30;;;;;;;1.40;0.80;;;;;;;24.77;61.86;96566.13;4990330;28;102999;-62
2022/05/27 11:44:38;;;;;;;1.40;0.60;;;;;;;24.57;64.51;96568.88;5042468;27;101926;-62
2022/05/27 11:47:28;;;;;;;1.20;0.80;;;;;;;25.14;63.52;96556.09;5051447;27;105085;-62
2022/05/27 11:50:16;;;;;;;2.23;0.50;;;;;;;24.32;63.09;96556.31;5029372;28;102669;-62
2022/05/27 11:52:54;;;;;;;1.20;0.60;;;;;;;24.54;60.06;96550.50;5029600;27;101901;-62
2022/05/27 11:55:44;;;;;;;0.87;0.67;;;;;;;24.75;66.04;96554.00;5030901;27;105462;-62
2022/05/27 11:58:18;;;;;;;2.20;0.70;;;;;;;24.75;71.71;96535.72;5030970;28;103890;-62
2022/05/27 12:00:51;;;;;;;1.43;0.60;;;;;;;24.49;66.24;96532.47;5031136;28;101847;-62
2022/05/27 12:03:25;;;;;;;1.50;0.57;;;;;;;24.85;61.00;96529.88;5036350;28;102697;-61
2022/05/27 12:05:59;;;;;;;1.30;0.60;;;;;;;25.39;64.38;96534.03;5033229;28;101732;-62
2022/05/27 12:08:33;;;;;;;2.27;0.87;;;;;;;25.03;63.39;96522.31;5031695;28;103802;-62
2022/05/27 12:11:07;;;;;;;3.50;0.60;;;;;;;25.21;60.97;96526.38;5032405;28;102621;-62
2022/05/27 12:13:39;;;;;;;0.50;0.50;;;;;;;25.02;60.47;96524.22;5033108;28;101847;-61
2022/05/27 12:16:11;;;;;;;1.17;0.70;;;;;;;25.13;60.69;96513.69;5011916;28;103808;-62
2022/05/27 12:18:43;;;;;;;1.30;0.77;;;;;;;25.11;61.78;96505.09;5032506;28;103239;-61
2022/05/27 12:21:15;;;;;;;1.00;0.50;;;;;;;24.97;62.73;96507.34;5021763;28;101897;-62
2022/05/27 12:23:47;;;;;;;0.73;0.57;;;;;;;25.15;59.17;96508.69;5033129;28;103067;-62
2022/05/27 12:26:14;;;;;;;0.57;0.57;;;;;;;24.92;52.81;96500.19;5017205;28;102834;-61